createdAt,value
2017-08-19T00:01:46.617Z,16.10
2017-08-19T00:04:14.274Z,16.10
2017-08-19T00:06:41.814Z,16.10
2017-08-19T00:09:09.404Z,16.10
2017-08-19T00:11:37.755Z,16.10
2017-08-19T00:14:06.145Z,16.20
2017-08-19T00:16:33.694Z,16.20
2017-08-19T00:19:01.354Z,16.20
2017-08-19T00:21:28.997Z,16.20
2017-08-19T00:23:56.612Z,16.20
2017-08-19T00:26:24.968Z,16.10
2017-08-19T00:28:53.997Z,16.10
2017-08-19T00:31:22.332Z,16.10
2017-08-19T00:33:49.983Z,16.10
2017-08-19T00:36:17.520Z,16.10
2017-08-19T00:38:45.114Z,16.10
2017-08-19T00:41:12.767Z,16.20
2017-08-19T00:43:40.416Z,16.20
2017-08-19T00:46:07.965Z,16.30
2017-08-19T00:48:35.560Z,16.30
2017-08-19T00:51:03.241Z,16.30
2017-08-19T00:53:30.860Z,16.30
2017-08-19T00:55:58.513Z,16.30
2017-08-19T00:58:26.038Z,16.30
2017-08-19T01:00:53.607Z,16.30
2017-08-19T01:03:21.127Z,16.30
2017-08-19T01:05:48.884Z,16.40
2017-08-19T01:08:16.434Z,16.30
2017-08-19T01:10:43.999Z,16.30
2017-08-19T01:13:11.537Z,16.40
2017-08-19T01:15:39.108Z,16.50
2017-08-19T01:18:06.712Z,16.50
2017-08-19T01:20:34.390Z,16.50
2017-08-19T01:23:01.932Z,16.50
2017-08-19T01:25:41.360Z,16.50
2017-08-19T01:28:08.892Z,16.50
2017-08-19T01:30:36.467Z,16.60
2017-08-19T01:33:04.067Z,16.50
2017-08-19T01:35:31.644Z,16.40
2017-08-19T01:37:59.228Z,16.40
2017-08-19T01:40:26.881Z,16.50
2017-08-19T01:42:55.196Z,16.50
2017-08-19T01:45:22.760Z,16.50
2017-08-19T01:47:50.378Z,16.50
2017-08-19T01:50:18.042Z,16.50
2017-08-19T01:52:45.638Z,16.60
2017-08-19T01:55:14.082Z,16.50
2017-08-19T01:57:41.683Z,16.50
2017-08-19T02:00:09.345Z,16.60
2017-08-19T02:02:36.952Z,16.60
2017-08-19T02:05:04.564Z,16.60
2017-08-19T02:07:32.224Z,16.50
2017-08-19T02:09:59.835Z,16.50
2017-08-19T02:12:27.508Z,16.60
2017-08-19T02:14:55.383Z,16.60
2017-08-19T02:17:23.726Z,16.60
2017-08-19T02:19:51.345Z,16.60
2017-08-19T02:22:19.000Z,16.60
2017-08-19T02:24:46.597Z,16.50
2017-08-19T02:27:14.236Z,16.60
2017-08-19T02:29:41.849Z,16.50
2017-08-19T02:32:09.422Z,16.50
2017-08-19T02:34:37.069Z,16.50
2017-08-19T02:37:04.662Z,16.40
2017-08-19T02:39:32.280Z,16.40
2017-08-19T02:41:59.898Z,16.40
2017-08-19T02:44:28.291Z,16.20
2017-08-19T02:46:55.962Z,16.20
2017-08-19T02:49:23.571Z,16.20
2017-08-19T02:51:51.208Z,16.20
2017-08-19T02:54:18.775Z,16.10
2017-08-19T02:56:46.438Z,16.10
2017-08-19T02:59:14.057Z,16.00
2017-08-19T03:01:41.725Z,15.90
2017-08-19T03:04:09.327Z,15.90
2017-08-19T03:06:36.979Z,16.00
2017-08-19T03:09:05.300Z,16.00
2017-08-19T03:11:32.962Z,15.90
2017-08-19T03:14:00.611Z,16.00
2017-08-19T03:16:28.258Z,16.00
2017-08-19T03:18:55.863Z,15.90
2017-08-19T03:21:23.516Z,16.00
2017-08-19T03:23:51.126Z,16.00
2017-08-19T03:26:19.543Z,15.90
2017-08-19T03:28:47.158Z,15.90
2017-08-19T03:31:14.843Z,15.80
2017-08-19T03:33:42.421Z,15.90
2017-08-19T03:36:10.119Z,15.80
2017-08-19T03:38:37.731Z,15.80
2017-08-19T03:41:06.128Z,15.70
2017-08-19T03:43:33.739Z,15.70
2017-08-19T03:46:02.155Z,15.60
2017-08-19T03:48:29.779Z,15.60
2017-08-19T03:50:57.405Z,15.60
2017-08-19T03:53:25.756Z,15.50
2017-08-19T03:55:53.335Z,15.50
2017-08-19T03:58:21.004Z,15.50
2017-08-19T04:00:48.648Z,15.50
2017-08-19T04:03:16.324Z,15.40
2017-08-19T04:05:43.922Z,15.40
2017-08-19T04:08:11.571Z,15.40
2017-08-19T04:10:39.172Z,15.40
2017-08-19T04:13:06.847Z,15.40
2017-08-19T04:15:35.224Z,15.40
2017-08-19T04:18:02.893Z,15.40
2017-08-19T04:20:30.482Z,15.30
2017-08-19T04:22:58.132Z,15.40
2017-08-19T04:25:25.753Z,15.40
2017-08-19T04:27:53.399Z,15.40
2017-08-19T04:30:21.015Z,15.40
2017-08-19T04:32:48.747Z,15.50
2017-08-19T04:35:16.279Z,15.40
2017-08-19T04:37:44.975Z,15.50
2017-08-19T04:40:12.596Z,15.50
2017-08-19T04:42:41.656Z,15.60
2017-08-19T04:45:09.268Z,15.60
2017-08-19T04:47:36.946Z,15.60
2017-08-19T04:50:04.565Z,15.60
2017-08-19T04:52:32.219Z,15.50
2017-08-19T04:54:59.850Z,15.60
2017-08-19T04:57:27.508Z,15.70
2017-08-19T04:59:55.121Z,15.80
2017-08-19T05:02:22.698Z,15.70
2017-08-19T05:04:50.377Z,15.80
2017-08-19T05:07:18.001Z,15.90
2017-08-19T05:09:45.579Z,16.10
2017-08-19T05:12:13.251Z,16.10
2017-08-19T05:14:41.155Z,16.10
2017-08-19T05:17:08.802Z,16.10
2017-08-19T05:19:37.183Z,16.10
2017-08-19T05:22:04.724Z,16.10
2017-08-19T05:24:32.675Z,16.10
2017-08-19T05:27:01.095Z,16.00
2017-08-19T05:29:28.775Z,16.00
2017-08-19T05:31:56.386Z,15.90
2017-08-19T05:34:24.048Z,16.00
2017-08-19T05:36:51.650Z,16.00
2017-08-19T05:39:20.035Z,16.10
2017-08-19T05:41:47.568Z,16.10
2017-08-19T05:44:15.176Z,16.00
2017-08-19T05:46:42.749Z,15.90
2017-08-19T05:49:10.362Z,15.80
2017-08-19T05:51:37.982Z,15.70
2017-08-19T05:56:39.479Z,15.70
2017-08-19T05:59:07.832Z,16.00
2017-08-19T06:01:35.420Z,15.90
2017-08-19T06:04:03.039Z,15.90
2017-08-19T06:06:30.694Z,15.90
2017-08-19T06:08:59.088Z,15.90
2017-08-19T06:11:26.707Z,15.90
2017-08-19T06:13:54.260Z,15.90
2017-08-19T06:16:22.660Z,15.70
2017-08-19T06:18:50.288Z,15.70
2017-08-19T06:21:17.898Z,15.70
2017-08-19T06:23:46.258Z,15.60
2017-08-19T06:26:13.829Z,15.70
2017-08-19T06:28:41.442Z,15.70
2017-08-19T06:31:09.064Z,15.80
2017-08-19T06:33:36.592Z,15.90
2017-08-19T06:36:04.269Z,15.90
2017-08-19T06:38:31.918Z,15.90
2017-08-19T06:40:59.581Z,16.00
2017-08-19T06:43:27.183Z,16.10
2017-08-19T06:45:54.866Z,16.00
2017-08-19T06:48:22.459Z,15.90
2017-08-19T06:50:50.116Z,16.00
2017-08-19T06:53:17.688Z,16.10
2017-08-19T06:55:45.357Z,16.10
2017-08-19T06:58:12.959Z,16.20
2017-08-19T07:00:40.574Z,16.20
2017-08-19T07:03:08.992Z,16.20
2017-08-19T07:05:36.602Z,16.20
2017-08-19T07:08:04.241Z,16.40
2017-08-19T07:10:31.859Z,16.50
2017-08-19T07:12:59.541Z,16.50
2017-08-19T07:15:27.146Z,16.40
2017-08-19T07:17:54.721Z,16.70
2017-08-19T07:20:23.096Z,17.00
2017-08-19T07:22:50.713Z,17.00
2017-08-19T07:25:18.300Z,17.20
2017-08-19T07:27:45.923Z,17.30
2017-08-19T07:30:14.298Z,17.30
2017-08-19T07:32:42.449Z,17.30
2017-08-19T07:35:10.032Z,17.20
2017-08-19T07:37:37.694Z,17.20
2017-08-19T07:40:05.286Z,17.20
2017-08-19T07:42:33.721Z,17.20
2017-08-19T07:45:01.341Z,17.20
2017-08-19T07:47:29.008Z,17.30
2017-08-19T07:49:56.636Z,17.40
2017-08-19T07:52:24.290Z,17.40
2017-08-19T07:54:51.899Z,17.40
2017-08-19T07:57:19.550Z,17.50
2017-08-19T07:59:47.147Z,17.50
2017-08-19T08:02:14.796Z,17.50
2017-08-19T08:04:42.428Z,17.50
2017-08-19T08:07:10.082Z,17.60
2017-08-19T08:09:37.784Z,17.70
2017-08-19T08:12:05.400Z,17.70
2017-08-19T08:14:33.820Z,17.70
2017-08-19T08:17:01.486Z,17.70
2017-08-19T08:19:29.101Z,17.70
2017-08-19T08:21:56.680Z,17.70
2017-08-19T08:24:24.226Z,17.60
2017-08-19T08:26:51.817Z,17.70
2017-08-19T08:29:19.433Z,17.60
2017-08-19T08:31:47.056Z,17.70
2017-08-19T08:34:14.714Z,18.00
2017-08-19T08:36:42.314Z,18.00
2017-08-19T08:39:09.971Z,17.90
2017-08-19T08:41:37.590Z,18.00
2017-08-19T08:44:05.990Z,18.10
2017-08-19T08:46:33.613Z,18.00
2017-08-19T08:49:01.278Z,18.10
2017-08-19T08:51:28.878Z,18.00
2017-08-19T08:53:56.555Z,18.10
2017-08-19T08:56:24.202Z,18.20
2017-08-19T08:58:51.842Z,18.20
2017-08-19T09:01:19.434Z,18.20
2017-08-19T09:03:47.048Z,18.30
2017-08-19T09:06:14.670Z,18.30
2017-08-19T09:08:42.333Z,18.50
2017-08-19T09:11:09.953Z,18.50
2017-08-19T09:13:37.628Z,18.60
2017-08-19T09:16:05.271Z,18.50
2017-08-19T09:18:32.897Z,18.50
2017-08-19T09:21:00.523Z,18.60
2017-08-19T09:23:28.788Z,19.00
2017-08-19T09:25:56.407Z,19.30
2017-08-19T09:28:24.054Z,19.50
2017-08-19T09:30:51.659Z,19.60
2017-08-19T09:33:20.101Z,19.80
2017-08-19T09:35:47.709Z,19.80
2017-08-19T09:38:15.364Z,20.10
2017-08-19T09:40:42.984Z,20.20
2017-08-19T09:43:10.652Z,20.40
2017-08-19T09:45:38.276Z,20.80
2017-08-19T09:48:05.967Z,20.80
2017-08-19T09:50:33.578Z,20.90
2017-08-19T09:53:01.243Z,20.90
2017-08-19T09:55:29.224Z,21.00
2017-08-19T09:57:56.904Z,21.20
2017-08-19T10:00:25.290Z,21.30
2017-08-19T10:02:52.963Z,21.30
2017-08-19T10:05:20.589Z,21.20
2017-08-19T10:07:48.250Z,21.20
2017-08-19T10:13:19.279Z,21.50
2017-08-19T10:15:46.904Z,21.70
2017-08-19T10:18:14.539Z,22.00
2017-08-19T10:20:42.121Z,22.10
2017-08-19T10:23:09.786Z,22.00
2017-08-19T10:25:37.391Z,21.80
2017-08-19T10:28:05.052Z,21.70
2017-08-19T10:30:32.676Z,21.60
2017-08-19T10:33:00.269Z,21.60
2017-08-19T10:35:27.893Z,21.70
2017-08-19T10:37:55.550Z,21.80
2017-08-19T10:40:23.095Z,22.00
2017-08-19T10:42:50.673Z,22.10
2017-08-19T10:45:18.198Z,22.00
2017-08-19T10:47:45.874Z,22.00
2017-08-19T10:50:13.399Z,22.00
2017-08-19T10:52:41.269Z,22.10
2017-08-19T10:55:08.795Z,22.20
2017-08-19T10:57:36.388Z,22.40
2017-08-19T11:00:04.011Z,22.50
2017-08-19T11:02:32.452Z,21.90
2017-08-19T11:05:00.098Z,21.90
2017-08-19T11:07:27.750Z,21.60
2017-08-19T11:09:55.340Z,21.80
2017-08-19T11:12:23.000Z,22.00
2017-08-19T11:14:50.560Z,22.30
2017-08-19T11:17:18.173Z,22.30
2017-08-19T11:19:45.829Z,22.30
2017-08-19T11:22:13.406Z,22.30
2017-08-19T11:24:41.060Z,22.00
2017-08-19T11:27:08.677Z,21.90
2017-08-19T11:29:36.349Z,21.90
2017-08-19T11:32:03.994Z,21.90
2017-08-19T11:34:31.656Z,21.90
2017-08-19T11:36:59.294Z,22.10
2017-08-19T11:39:26.960Z,22.20
2017-08-19T11:41:54.597Z,22.40
2017-08-19T11:44:22.256Z,22.60
2017-08-19T11:46:49.865Z,22.70
2017-08-19T11:49:17.545Z,23.00
2017-08-19T11:51:45.091Z,23.20
2017-08-19T11:54:12.717Z,23.30
2017-08-19T11:56:40.382Z,23.50
2017-08-19T11:59:08.001Z,23.50
2017-08-19T12:01:35.555Z,23.30
2017-08-19T12:04:03.217Z,23.50
2017-08-19T12:06:30.835Z,24.10
2017-08-19T12:08:58.485Z,24.10
2017-08-19T12:11:26.094Z,23.90
2017-08-19T12:13:54.531Z,22.60
2017-08-19T12:16:22.146Z,22.60
2017-08-19T12:18:49.768Z,21.80
2017-08-19T12:21:17.429Z,21.20
2017-08-19T12:23:45.020Z,20.60
2017-08-19T12:26:12.689Z,20.10
2017-08-19T12:28:41.052Z,20.00
2017-08-19T12:31:09.474Z,20.30
2017-08-19T12:33:37.075Z,20.30
2017-08-19T12:36:05.465Z,20.40
2017-08-19T12:38:33.049Z,20.30
2017-08-19T12:41:00.740Z,20.40
2017-08-19T12:43:28.371Z,20.50
2017-08-19T12:45:56.764Z,20.60
2017-08-19T12:48:24.435Z,20.60
2017-08-19T12:50:52.038Z,20.60
2017-08-19T12:53:19.715Z,20.40
2017-08-19T12:55:47.358Z,20.40
2017-08-19T12:58:15.019Z,20.50
2017-08-19T13:00:42.629Z,20.40
2017-08-19T13:03:10.328Z,20.50
2017-08-19T13:05:37.951Z,20.50
2017-08-19T13:08:05.626Z,20.60
2017-08-19T13:10:33.389Z,20.60
2017-08-19T13:13:01.050Z,20.80
2017-08-19T13:15:29.433Z,21.10
2017-08-19T13:17:57.044Z,21.00
2017-08-19T13:20:24.682Z,21.20
2017-08-19T13:22:52.345Z,21.30
2017-08-19T13:25:19.950Z,21.30
2017-08-19T13:27:47.621Z,21.30
2017-08-19T13:30:15.233Z,21.20
2017-08-19T13:32:42.860Z,21.10
2017-08-19T13:35:10.421Z,21.30
2017-08-19T13:37:38.088Z,21.40
2017-08-19T13:40:05.669Z,21.30
2017-08-19T13:42:33.315Z,21.40
2017-08-19T13:45:00.946Z,21.40
2017-08-19T13:47:28.613Z,21.50
2017-08-19T13:49:56.215Z,21.70
2017-08-19T13:52:23.870Z,21.80
2017-08-19T13:54:51.480Z,21.90
2017-08-19T13:57:19.130Z,22.20
2017-08-19T13:59:46.744Z,22.40
2017-08-19T14:02:14.439Z,22.40
2017-08-19T14:04:42.052Z,22.70
2017-08-19T14:07:10.479Z,23.10
2017-08-19T14:09:38.065Z,23.10
2017-08-19T14:12:05.633Z,23.00
2017-08-19T14:14:33.225Z,23.10
2017-08-19T14:17:00.805Z,23.10
2017-08-19T14:19:28.393Z,23.30
2017-08-19T14:21:56.036Z,23.40
2017-08-19T14:24:23.604Z,23.50
2017-08-19T14:26:51.313Z,23.60
2017-08-19T14:29:18.978Z,23.70
2017-08-19T14:31:46.689Z,23.50
2017-08-19T14:34:14.307Z,23.70
2017-08-19T14:36:42.739Z,24.10
2017-08-19T14:39:10.357Z,24.10
2017-08-19T14:41:37.970Z,24.00
2017-08-19T14:44:05.641Z,24.00
2017-08-19T14:46:33.323Z,23.70
2017-08-19T14:49:01.181Z,23.70
2017-08-19T14:51:28.822Z,23.90
2017-08-19T14:53:56.485Z,24.00
2017-08-19T14:56:24.182Z,24.00
2017-08-19T14:58:51.847Z,24.30
2017-08-19T15:01:19.454Z,24.50
2017-08-19T15:03:47.881Z,25.60
2017-08-19T15:06:15.502Z,25.60
2017-08-19T15:08:43.152Z,26.10
2017-08-19T15:11:10.756Z,26.50
2017-08-19T15:13:39.211Z,27.10
2017-08-19T15:16:06.844Z,27.10
2017-08-19T15:18:34.515Z,27.30
2017-08-19T15:21:02.908Z,27.40
2017-08-19T15:23:30.624Z,27.40
2017-08-19T15:25:58.251Z,27.20
2017-08-19T15:28:25.912Z,26.70
2017-08-19T15:30:53.531Z,26.70
2017-08-19T15:33:21.123Z,26.70
2017-08-19T15:35:49.494Z,26.10
2017-08-19T15:38:17.914Z,25.80
2017-08-19T15:40:45.542Z,25.70
2017-08-19T15:43:13.226Z,25.40
2017-08-19T15:45:40.830Z,25.00
2017-08-19T15:48:08.470Z,24.70
2017-08-19T15:50:36.103Z,24.50
2017-08-19T15:53:03.835Z,24.20
2017-08-19T15:55:32.248Z,23.50
2017-08-19T15:57:59.874Z,23.50
2017-08-19T16:00:27.598Z,23.30
2017-08-19T16:02:56.036Z,22.80
2017-08-19T16:05:23.661Z,22.80
2017-08-19T16:07:51.230Z,22.50
2017-08-19T16:10:18.890Z,22.20
2017-08-19T16:12:46.564Z,21.90
2017-08-19T16:15:14.168Z,21.60
2017-08-19T16:17:41.761Z,21.40
2017-08-19T16:20:09.330Z,21.20
2017-08-19T16:22:37.035Z,21.00
2017-08-19T16:25:05.413Z,20.60
2017-08-19T16:27:33.024Z,20.60
2017-08-19T16:30:00.716Z,20.40
2017-08-19T16:32:28.363Z,20.40
2017-08-19T16:34:56.033Z,20.30
2017-08-19T16:37:23.647Z,20.20
2017-08-19T16:39:51.302Z,20.20
2017-08-19T16:42:18.861Z,20.10
2017-08-19T16:44:46.438Z,20.00
2017-08-19T16:47:13.976Z,20.00
2017-08-19T16:49:41.568Z,19.90
2017-08-19T16:52:09.940Z,19.70
2017-08-19T16:54:37.997Z,19.70
2017-08-19T16:57:05.633Z,19.60
2017-08-19T16:59:33.473Z,19.60
2017-08-19T17:02:01.071Z,19.50
2017-08-19T17:04:28.747Z,19.40
2017-08-19T17:06:56.327Z,19.40
2017-08-19T17:09:24.696Z,19.20
2017-08-19T17:11:53.122Z,19.30
2017-08-19T17:14:20.697Z,19.20
2017-08-19T17:16:49.042Z,19.10
2017-08-19T17:19:16.650Z,19.10
2017-08-19T17:21:44.284Z,19.00
2017-08-19T17:24:11.823Z,18.80
2017-08-19T17:26:39.436Z,18.80
2017-08-19T17:29:07.082Z,18.80
2017-08-19T17:31:34.748Z,18.90
2017-08-19T17:34:03.147Z,18.90
2017-08-19T17:36:30.828Z,18.90
2017-08-19T17:38:58.435Z,19.00
2017-08-19T17:41:26.116Z,19.00
2017-08-19T17:43:53.740Z,19.00
2017-08-19T17:46:21.430Z,18.80
2017-08-19T17:48:49.027Z,18.80
2017-08-19T17:51:16.664Z,18.80
2017-08-19T17:53:44.276Z,18.70
2017-08-19T17:56:12.644Z,18.60
2017-08-19T17:58:41.086Z,18.60
2017-08-19T18:01:08.706Z,18.60
2017-08-19T18:03:36.344Z,18.60
2017-08-19T18:06:03.969Z,18.60
2017-08-19T18:08:31.669Z,18.50
2017-08-19T18:10:59.256Z,18.50
2017-08-19T18:13:26.934Z,18.50
2017-08-19T18:15:54.557Z,18.40
2017-08-19T18:18:22.253Z,18.20
2017-08-19T18:20:49.835Z,18.20
2017-08-19T18:23:18.267Z,18.00
2017-08-19T18:25:45.874Z,18.00
2017-08-19T18:28:13.560Z,17.90
2017-08-19T18:30:41.197Z,18.00
2017-08-19T18:33:08.877Z,18.00
2017-08-19T18:35:36.535Z,17.90
2017-08-19T18:38:04.996Z,17.70
2017-08-19T18:40:33.426Z,17.80
2017-08-19T18:43:01.066Z,17.80
2017-08-19T18:45:28.691Z,17.70
2017-08-19T18:47:56.305Z,17.70
2017-08-19T18:50:24.698Z,17.60
2017-08-19T18:52:52.359Z,17.50
2017-08-19T18:55:19.979Z,17.60
2017-08-19T18:57:47.648Z,17.60
2017-08-19T19:00:15.263Z,17.50
2017-08-19T19:02:43.694Z,17.60
2017-08-19T19:05:11.290Z,17.60
2017-08-19T19:07:38.867Z,17.70
2017-08-19T19:10:06.417Z,17.50
2017-08-19T19:12:33.996Z,17.50
2017-08-19T19:15:01.685Z,17.40
2017-08-19T19:17:29.331Z,17.40
2017-08-19T19:19:56.935Z,17.50
2017-08-19T19:22:24.640Z,17.50
2017-08-19T19:24:52.215Z,17.40
2017-08-19T19:27:20.787Z,17.40
2017-08-19T19:29:48.328Z,17.20
2017-08-19T19:32:15.882Z,17.20
2017-08-19T19:34:43.479Z,17.20
2017-08-19T19:37:11.082Z,17.10
2017-08-19T19:39:38.715Z,17.10
2017-08-19T19:42:06.302Z,17.10
2017-08-19T19:44:33.955Z,17.10
2017-08-19T19:47:01.612Z,17.00
2017-08-19T19:49:29.299Z,17.20
2017-08-19T19:51:56.894Z,17.00
2017-08-19T19:54:24.539Z,17.00
2017-08-19T19:56:52.108Z,17.00
2017-08-19T19:59:19.715Z,16.80
2017-08-19T20:01:48.088Z,16.80
2017-08-19T20:04:16.508Z,16.80
2017-08-19T20:06:44.127Z,16.80
2017-08-19T20:09:11.798Z,16.80
2017-08-19T20:11:39.403Z,16.80
2017-08-19T20:14:07.104Z,16.80
2017-08-19T20:16:34.738Z,16.80
2017-08-19T20:19:02.812Z,16.70
2017-08-19T20:21:30.456Z,16.70
2017-08-19T20:23:58.103Z,16.70
2017-08-19T20:26:25.717Z,16.70
2017-08-19T20:28:53.359Z,16.70
2017-08-19T20:31:21.007Z,16.70
2017-08-19T20:33:48.624Z,16.80
2017-08-19T20:36:16.995Z,16.70
2017-08-19T20:38:44.677Z,16.70
2017-08-19T20:41:12.296Z,16.60
2017-08-19T20:43:39.925Z,16.50
2017-08-19T20:46:07.594Z,16.50
2017-08-19T20:48:35.207Z,16.40
2017-08-19T20:51:02.854Z,16.50
2017-08-19T20:53:31.230Z,16.30
2017-08-19T20:55:59.683Z,16.20
2017-08-19T20:58:27.284Z,16.20
2017-08-19T21:00:54.924Z,16.40
2017-08-19T21:03:22.535Z,16.40
2017-08-19T21:05:50.950Z,16.30
2017-08-19T21:08:18.569Z,16.30
2017-08-19T21:10:46.231Z,16.30
2017-08-19T21:13:13.852Z,16.20
2017-08-19T21:15:41.515Z,16.20
2017-08-19T21:18:09.139Z,16.20
2017-08-19T21:20:36.800Z,16.20
2017-08-19T21:23:04.410Z,16.20
2017-08-19T21:25:32.071Z,16.30
2017-08-19T21:27:59.720Z,16.20
2017-08-19T21:30:28.088Z,16.20
2017-08-19T21:32:56.472Z,16.20
2017-08-19T21:35:24.061Z,16.20
2017-08-19T21:37:51.672Z,16.20
2017-08-19T21:40:19.341Z,16.10
2017-08-19T21:42:46.947Z,16.00
2017-08-19T21:45:14.530Z,16.00
2017-08-19T21:47:42.199Z,15.90
2017-08-19T21:50:09.821Z,15.90
2017-08-19T21:52:37.475Z,15.90
2017-08-19T21:55:05.042Z,15.90
2017-08-19T21:57:32.694Z,15.90
2017-08-19T22:00:00.295Z,15.80
2017-08-19T22:02:27.875Z,15.80
2017-08-19T22:04:55.494Z,15.70
2017-08-19T22:07:23.146Z,15.60
2017-08-19T22:09:50.779Z,15.60
2017-08-19T22:12:18.437Z,15.60
2017-08-19T22:14:46.060Z,15.50
2017-08-19T22:17:13.721Z,15.60
2017-08-19T22:19:41.292Z,15.50
2017-08-19T22:22:08.923Z,15.50
2017-08-19T22:24:36.532Z,15.50
2017-08-19T22:27:04.961Z,15.50
2017-08-19T22:29:32.566Z,15.40
2017-08-19T22:32:00.223Z,15.50
2017-08-19T22:34:27.808Z,15.40
2017-08-19T22:36:55.405Z,15.30
2017-08-19T22:39:23.021Z,15.20
2017-08-19T22:41:50.604Z,15.20
2017-08-19T22:44:18.214Z,15.20
2017-08-19T22:46:46.564Z,14.90
2017-08-19T22:49:14.228Z,14.90
2017-08-19T22:51:42.605Z,14.80
2017-08-19T22:54:10.242Z,14.70
2017-08-19T22:56:38.615Z,14.50
2017-08-19T22:59:06.325Z,14.50
2017-08-19T23:01:33.938Z,14.50
2017-08-19T23:04:01.659Z,14.40
2017-08-19T23:06:29.259Z,14.40
2017-08-19T23:08:56.940Z,14.40
2017-08-19T23:11:25.304Z,14.40
2017-08-19T23:13:53.718Z,14.30
2017-08-19T23:16:21.318Z,14.30
2017-08-19T23:18:49.865Z,14.10
2017-08-19T23:21:17.463Z,14.10
2017-08-19T23:23:45.152Z,14.10
2017-08-19T23:26:12.696Z,14.10
2017-08-19T23:28:40.377Z,14.10
2017-08-19T23:31:09.758Z,13.90
2017-08-19T23:33:38.197Z,13.80
2017-08-19T23:36:06.143Z,13.80
2017-08-19T23:38:33.758Z,13.80
2017-08-19T23:41:01.335Z,13.70
2017-08-19T23:43:28.900Z,13.70
2017-08-19T23:45:56.504Z,13.70
2017-08-19T23:48:24.028Z,13.70
2017-08-19T23:50:51.596Z,13.60
2017-08-19T23:53:19.136Z,13.50
2017-08-19T23:55:46.807Z,13.40
2017-08-19T23:58:14.410Z,13.40
